createdAt,value
2017-07-14T00:01:57.941Z,4.27
2017-07-14T00:04:26.025Z,3.63
2017-07-14T00:06:54.133Z,4.40
2017-07-14T00:09:22.197Z,3.70
2017-07-14T00:11:50.284Z,4.10
2017-07-14T00:14:18.368Z,4.67
2017-07-14T00:16:46.459Z,4.80
2017-07-14T00:19:14.534Z,4.83
2017-07-14T00:21:42.620Z,4.03
2017-07-14T00:24:10.700Z,4.33
2017-07-14T00:26:38.776Z,4.67
2017-07-14T00:29:07.082Z,4.67
2017-07-14T00:31:35.163Z,4.70
2017-07-14T00:34:03.244Z,4.73
2017-07-14T00:36:31.320Z,4.20
2017-07-14T00:38:59.403Z,4.33
2017-07-14T00:41:27.490Z,4.10
2017-07-14T00:43:55.589Z,4.80
2017-07-14T00:46:23.668Z,5.07
2017-07-14T00:48:51.755Z,4.63
2017-07-14T00:51:19.849Z,4.93
2017-07-14T00:53:47.952Z,4.90
2017-07-14T00:56:16.033Z,5.00
2017-07-14T00:58:44.114Z,4.60
2017-07-14T01:01:12.199Z,4.83
2017-07-14T01:03:40.280Z,4.73
2017-07-14T01:06:08.371Z,4.70
2017-07-14T01:08:36.451Z,4.97
2017-07-14T01:11:04.531Z,4.90
2017-07-14T01:13:32.626Z,4.63
2017-07-14T01:16:00.712Z,5.33
2017-07-14T01:18:28.780Z,4.60
2017-07-14T01:20:56.872Z,4.70
2017-07-14T01:23:24.953Z,4.60
2017-07-14T01:25:53.050Z,4.70
2017-07-14T01:28:21.129Z,5.17
2017-07-14T01:30:49.212Z,4.93
2017-07-14T01:33:17.297Z,5.10
2017-07-14T01:35:45.368Z,4.93
2017-07-14T01:38:13.468Z,4.90
2017-07-14T01:40:41.548Z,4.97
2017-07-14T01:43:09.638Z,4.40
2017-07-14T01:45:37.729Z,5.90
2017-07-14T01:48:05.849Z,5.03
2017-07-14T01:50:33.930Z,5.10
2017-07-14T01:53:02.022Z,5.40
2017-07-14T01:55:30.107Z,3.97
2017-07-14T01:57:58.193Z,5.07
2017-07-14T02:00:26.278Z,4.57
2017-07-14T02:02:54.358Z,4.90
2017-07-14T02:05:22.444Z,4.60
2017-07-14T02:07:50.514Z,4.43
2017-07-14T02:10:18.612Z,4.90
2017-07-14T02:12:46.698Z,4.90
2017-07-14T02:15:14.796Z,5.77
2017-07-14T02:17:42.889Z,6.57
2017-07-14T02:20:10.971Z,8.07
2017-07-14T02:22:39.056Z,15.63
2017-07-14T02:25:07.147Z,18.17
2017-07-14T02:27:35.235Z,73.03
2017-07-14T02:30:03.318Z,16.93
2017-07-14T02:32:31.623Z,7.80
2017-07-14T02:34:59.710Z,6.20
2017-07-14T02:37:27.800Z,10.53
2017-07-14T02:39:55.892Z,24.00
2017-07-14T02:42:23.983Z,17.47
2017-07-14T02:44:52.072Z,14.40
2017-07-14T02:47:20.174Z,8.67
2017-07-14T02:49:48.265Z,5.80
2017-07-14T02:52:16.362Z,5.97
2017-07-14T02:54:44.434Z,5.23
2017-07-14T02:57:12.524Z,6.00
2017-07-14T02:59:40.620Z,5.13
2017-07-14T03:02:08.692Z,4.60
2017-07-14T03:04:36.776Z,5.20
2017-07-14T03:07:04.853Z,5.87
2017-07-14T03:09:32.938Z,7.37
2017-07-14T03:12:01.034Z,7.80
2017-07-14T03:14:29.114Z,5.47
2017-07-14T03:16:57.206Z,4.87
2017-07-14T03:19:25.280Z,6.10
2017-07-14T03:21:53.361Z,5.83
2017-07-14T03:24:21.446Z,5.07
2017-07-14T03:26:49.532Z,5.67
2017-07-14T03:29:17.612Z,5.00
2017-07-14T03:31:45.707Z,5.87
2017-07-14T03:34:13.779Z,6.67
2017-07-14T03:36:41.873Z,6.33
2017-07-14T03:39:09.960Z,6.77
2017-07-14T03:41:38.051Z,6.03
2017-07-14T03:44:06.140Z,6.60
2017-07-14T03:46:34.225Z,7.10
2017-07-14T03:49:02.312Z,5.80
2017-07-14T03:51:30.402Z,7.23
2017-07-14T03:53:58.479Z,6.27
2017-07-14T03:56:26.583Z,10.70
2017-07-14T03:58:54.687Z,15.27
2017-07-14T04:01:22.767Z,8.60
2017-07-14T04:03:50.904Z,7.00
2017-07-14T04:06:18.998Z,6.50
2017-07-14T04:08:47.090Z,7.60
2017-07-14T04:11:15.176Z,6.47
2017-07-14T04:13:43.267Z,7.30
2017-07-14T04:16:11.348Z,6.90
2017-07-14T04:18:39.441Z,6.93
2017-07-14T04:21:07.512Z,6.70
2017-07-14T04:23:35.613Z,6.80
2017-07-14T04:26:03.700Z,6.97
2017-07-14T04:28:31.800Z,6.90
2017-07-14T04:30:59.881Z,7.03
2017-07-14T04:33:27.957Z,6.40
2017-07-14T04:35:56.057Z,6.70
2017-07-14T04:38:24.143Z,6.20
2017-07-14T04:40:52.230Z,6.40
2017-07-14T04:43:20.308Z,6.50
2017-07-14T04:45:48.384Z,6.73
2017-07-14T04:48:16.473Z,6.60
2017-07-14T04:50:44.559Z,7.60
2017-07-14T04:53:12.650Z,6.10
2017-07-14T04:55:40.951Z,5.80
2017-07-14T04:58:09.036Z,6.33
2017-07-14T05:00:37.161Z,6.80
2017-07-14T05:03:05.241Z,6.73
2017-07-14T05:05:33.316Z,6.93
2017-07-14T05:08:01.402Z,6.60
2017-07-14T05:10:29.472Z,6.30
2017-07-14T05:12:57.551Z,6.07
2017-07-14T05:15:25.637Z,6.53
2017-07-14T05:17:53.735Z,6.80
2017-07-14T05:20:21.817Z,6.30
2017-07-14T05:22:49.902Z,6.03
2017-07-14T05:25:18.026Z,6.20
2017-07-14T05:27:46.132Z,6.90
2017-07-14T05:30:14.229Z,6.13
2017-07-14T05:32:42.308Z,7.23
2017-07-14T05:35:10.402Z,6.17
2017-07-14T05:37:38.479Z,6.40
2017-07-14T05:40:06.709Z,5.83
2017-07-14T05:42:34.785Z,5.87
2017-07-14T05:45:02.863Z,5.77
2017-07-14T05:47:30.948Z,4.77
2017-07-14T05:49:59.032Z,5.20
2017-07-14T05:52:27.127Z,5.67
2017-07-14T05:54:55.220Z,5.47
2017-07-14T05:57:23.303Z,4.10
2017-07-14T05:59:51.400Z,4.77
2017-07-14T06:02:19.484Z,4.87
2017-07-14T06:04:47.576Z,4.60
2017-07-14T06:07:15.671Z,4.63
2017-07-14T06:09:43.751Z,4.50
2017-07-14T06:12:11.843Z,4.60
2017-07-14T06:14:39.924Z,4.23
2017-07-14T06:17:08.011Z,4.70
2017-07-14T06:19:36.083Z,5.37
2017-07-14T06:22:04.179Z,6.23
2017-07-14T06:24:32.259Z,4.00
2017-07-14T06:27:00.336Z,3.90
2017-07-14T06:29:28.420Z,6.70
2017-07-14T06:31:56.507Z,13.03
2017-07-14T06:34:24.588Z,6.07
2017-07-14T06:36:52.668Z,8.90
2017-07-14T06:39:20.764Z,6.07
2017-07-14T06:41:48.843Z,5.37
2017-07-14T06:44:16.920Z,4.37
2017-07-14T06:46:45.008Z,4.50
2017-07-14T06:49:13.085Z,4.30
2017-07-14T06:51:41.161Z,4.83
2017-07-14T06:54:09.251Z,4.70
2017-07-14T06:56:37.349Z,4.53
2017-07-14T06:59:05.438Z,5.77
2017-07-14T07:01:33.507Z,4.80
2017-07-14T07:04:01.591Z,5.00
2017-07-14T07:06:29.684Z,5.20
2017-07-14T07:08:57.765Z,3.53
2017-07-14T07:11:25.846Z,2.73
2017-07-14T07:13:53.924Z,2.70
2017-07-14T07:16:22.003Z,2.67
2017-07-14T07:18:50.093Z,3.50
2017-07-14T07:21:18.168Z,2.83
2017-07-14T07:23:46.255Z,2.93
2017-07-14T07:26:14.336Z,3.40
2017-07-14T07:28:42.420Z,3.23
2017-07-14T07:31:10.503Z,4.10
2017-07-14T07:33:38.589Z,3.53
2017-07-14T07:36:06.662Z,3.80
2017-07-14T07:38:34.751Z,3.63
2017-07-14T07:41:02.829Z,3.50
2017-07-14T07:43:30.917Z,3.00
2017-07-14T07:45:59.800Z,3.20
2017-07-14T07:48:33.560Z,6.10
2017-07-14T07:51:01.640Z,3.00
2017-07-14T07:53:29.732Z,3.73
2017-07-14T07:55:57.836Z,3.40
2017-07-14T07:58:25.923Z,3.07
2017-07-14T08:00:54.003Z,2.90
2017-07-14T08:03:22.091Z,3.60
2017-07-14T08:05:50.157Z,3.53
2017-07-14T08:08:18.233Z,2.43
2017-07-14T08:10:46.315Z,2.57
2017-07-14T08:13:14.423Z,2.50
2017-07-14T08:15:42.505Z,2.97
2017-07-14T08:18:10.594Z,2.60
2017-07-14T08:20:38.696Z,3.30
2017-07-14T08:23:06.796Z,2.53
2017-07-14T08:25:34.877Z,2.90
2017-07-14T08:28:02.969Z,2.40
2017-07-14T08:30:31.041Z,2.47
2017-07-14T08:32:59.124Z,2.50
2017-07-14T08:35:27.209Z,2.83
2017-07-14T08:37:55.290Z,2.80
2017-07-14T08:40:23.372Z,2.40
2017-07-14T08:42:51.461Z,2.47
2017-07-14T08:45:19.544Z,2.33
2017-07-14T08:47:47.840Z,2.27
2017-07-14T08:50:15.918Z,2.87
2017-07-14T08:52:44.001Z,2.50
2017-07-14T08:55:12.198Z,2.60
2017-07-14T08:57:40.280Z,2.30
2017-07-14T09:00:08.579Z,2.20
2017-07-14T09:02:36.655Z,2.50
2017-07-14T09:05:04.747Z,2.23
2017-07-14T09:07:32.832Z,2.37
2017-07-14T09:10:00.917Z,1.90
2017-07-14T09:12:28.997Z,2.10
2017-07-14T09:14:57.078Z,2.37
2017-07-14T09:17:25.157Z,1.97
2017-07-14T09:19:53.240Z,2.40
2017-07-14T09:22:21.319Z,1.90
2017-07-14T09:24:49.405Z,2.37
2017-07-14T09:27:17.492Z,2.30
2017-07-14T09:29:45.572Z,1.73
2017-07-14T09:32:13.665Z,1.80
2017-07-14T09:34:41.746Z,1.73
2017-07-14T09:37:10.234Z,2.17
2017-07-14T09:39:38.316Z,1.80
2017-07-14T09:42:06.409Z,1.70
2017-07-14T09:44:34.484Z,2.30
2017-07-14T09:47:02.577Z,2.03
2017-07-14T09:49:30.667Z,1.60
2017-07-14T09:51:58.787Z,1.90
2017-07-14T09:54:26.878Z,1.70
2017-07-14T09:56:54.960Z,1.83
2017-07-14T09:59:23.047Z,1.90
2017-07-14T10:01:51.128Z,2.00
2017-07-14T10:04:19.209Z,1.70
2017-07-14T10:06:47.295Z,1.90
2017-07-14T10:09:15.381Z,2.13
2017-07-14T10:11:43.454Z,2.60
2017-07-14T10:14:11.555Z,2.57
2017-07-14T10:16:39.636Z,2.63
2017-07-14T10:19:07.716Z,2.60
2017-07-14T10:21:35.804Z,2.50
2017-07-14T10:24:03.893Z,2.30
2017-07-14T10:26:31.997Z,2.30
2017-07-14T10:29:00.076Z,1.83
2017-07-14T10:31:28.165Z,1.80
2017-07-14T10:33:56.248Z,2.03
2017-07-14T10:36:24.332Z,1.90
2017-07-14T10:38:52.408Z,2.30
2017-07-14T10:41:20.497Z,2.00
2017-07-14T10:43:48.574Z,1.97
2017-07-14T10:46:16.659Z,2.13
2017-07-14T10:48:44.740Z,1.90
2017-07-14T10:51:12.840Z,1.53
2017-07-14T10:53:40.924Z,2.20
2017-07-14T10:56:09.020Z,1.60
2017-07-14T10:58:37.105Z,2.20
2017-07-14T11:01:05.182Z,2.00
2017-07-14T11:03:33.271Z,1.70
2017-07-14T11:06:01.342Z,1.60
2017-07-14T11:08:29.429Z,1.80
2017-07-14T11:10:57.504Z,1.60
2017-07-14T11:13:25.586Z,1.80
2017-07-14T11:15:53.661Z,1.90
2017-07-14T11:18:21.733Z,1.63
2017-07-14T11:20:49.827Z,1.60
2017-07-14T11:23:17.920Z,1.83
2017-07-14T11:25:45.998Z,1.47
2017-07-14T11:28:14.089Z,1.70
2017-07-14T11:30:42.169Z,1.90
2017-07-14T11:33:10.236Z,2.00
2017-07-14T11:35:38.330Z,1.83
2017-07-14T11:38:06.423Z,1.60
2017-07-14T11:40:34.505Z,2.10
2017-07-14T11:43:02.613Z,1.80
2017-07-14T11:45:30.673Z,1.90
2017-07-14T11:47:58.749Z,2.00
2017-07-14T11:50:26.855Z,1.70
2017-07-14T11:52:54.935Z,1.90
2017-07-14T11:55:23.025Z,2.43
2017-07-14T11:57:51.105Z,2.97
2017-07-14T12:00:19.201Z,2.90
2017-07-14T12:02:47.280Z,2.27
2017-07-14T12:05:15.357Z,2.50
2017-07-14T12:07:43.442Z,1.90
2017-07-14T12:10:11.868Z,2.00
2017-07-14T12:12:39.949Z,2.80
2017-07-14T12:15:08.030Z,2.10
2017-07-14T12:17:36.125Z,2.10
2017-07-14T12:20:04.208Z,1.83
2017-07-14T12:22:32.291Z,2.90
2017-07-14T12:25:00.371Z,1.80
2017-07-14T12:30:02.904Z,3.23
2017-07-14T12:32:31.008Z,2.20
2017-07-14T12:34:59.080Z,3.60
2017-07-14T12:37:27.172Z,3.63
2017-07-14T12:39:55.256Z,3.40
2017-07-14T12:42:23.332Z,2.90
2017-07-14T12:44:51.417Z,2.40
2017-07-14T12:47:19.500Z,2.43
2017-07-14T12:49:47.580Z,3.10
2017-07-14T12:52:15.656Z,3.17
2017-07-14T12:54:43.740Z,3.67
2017-07-14T12:57:11.829Z,4.57
2017-07-14T12:59:39.926Z,2.70
2017-07-14T13:02:07.997Z,3.13
2017-07-14T13:04:36.081Z,3.07
2017-07-14T13:07:04.173Z,2.97
2017-07-14T13:09:32.257Z,2.70
2017-07-14T13:12:00.348Z,2.80
2017-07-14T13:14:28.436Z,2.80
2017-07-14T13:16:56.515Z,3.10
2017-07-14T13:19:24.598Z,2.90
2017-07-14T13:21:52.688Z,3.30
2017-07-14T13:24:20.772Z,3.30
2017-07-14T13:26:48.868Z,3.60
2017-07-14T13:29:16.948Z,3.70
2017-07-14T13:31:45.041Z,4.27
2017-07-14T13:34:13.130Z,4.17
2017-07-14T13:36:41.200Z,3.87
2017-07-14T13:39:09.286Z,3.60
2017-07-14T13:41:37.364Z,3.17
2017-07-14T13:44:05.444Z,3.47
2017-07-14T13:46:33.541Z,3.67
2017-07-14T13:49:01.641Z,3.70
2017-07-14T13:51:29.722Z,3.30
2017-07-14T13:53:57.799Z,4.10
2017-07-14T13:56:25.890Z,3.53
2017-07-14T13:58:53.970Z,3.60
2017-07-14T14:01:22.044Z,3.23
2017-07-14T14:03:50.129Z,3.93
2017-07-14T14:06:18.227Z,4.00
2017-07-14T14:08:46.301Z,3.53
2017-07-14T14:11:14.397Z,4.53
2017-07-14T14:13:42.479Z,4.50
2017-07-14T14:16:10.554Z,4.93
2017-07-14T14:18:38.644Z,4.57
2017-07-14T14:21:06.717Z,4.40
2017-07-14T14:23:34.811Z,3.97
2017-07-14T14:26:02.901Z,3.73
2017-07-14T14:28:30.984Z,3.97
2017-07-14T14:30:59.061Z,3.60
2017-07-14T14:33:27.173Z,3.37
2017-07-14T14:35:55.255Z,3.07
2017-07-14T14:38:23.341Z,3.77
2017-07-14T14:40:51.424Z,3.50
2017-07-14T14:43:19.511Z,3.17
2017-07-14T14:45:47.601Z,3.27
2017-07-14T14:48:15.681Z,2.70
2017-07-14T14:50:43.762Z,3.10
2017-07-14T14:53:11.834Z,2.70
2017-07-14T14:55:39.908Z,2.43
2017-07-14T14:58:07.996Z,2.60
2017-07-14T15:00:36.076Z,2.60
2017-07-14T15:03:04.159Z,2.83
2017-07-14T15:05:32.245Z,2.83
2017-07-14T15:08:00.332Z,2.80
2017-07-14T15:10:28.412Z,2.47
2017-07-14T15:12:56.508Z,1.80
2017-07-14T15:15:24.592Z,2.27
2017-07-14T15:17:52.684Z,2.20
2017-07-14T15:20:20.756Z,2.07
2017-07-14T15:22:48.830Z,2.60
2017-07-14T15:25:16.915Z,4.90
2017-07-14T15:27:44.996Z,2.60
2017-07-14T15:30:13.088Z,3.03
2017-07-14T15:32:41.172Z,2.77
2017-07-14T15:35:09.257Z,2.60
2017-07-14T15:37:37.569Z,3.60
2017-07-14T15:40:05.648Z,3.53
2017-07-14T15:42:33.719Z,3.17
2017-07-14T15:45:01.799Z,3.30
2017-07-14T15:47:29.877Z,3.63
2017-07-14T15:49:57.962Z,3.97
2017-07-14T15:52:26.032Z,4.03
2017-07-14T15:54:54.118Z,3.97
2017-07-14T15:57:22.198Z,4.73
2017-07-14T15:59:50.273Z,4.50
2017-07-14T16:02:18.374Z,4.33
2017-07-14T16:04:46.450Z,4.80
2017-07-14T16:07:14.531Z,4.20
2017-07-14T16:09:42.611Z,4.23
2017-07-14T16:12:10.687Z,4.63
2017-07-14T16:14:38.759Z,3.97
2017-07-14T16:17:06.860Z,4.40
2017-07-14T16:19:34.943Z,4.13
2017-07-14T16:22:03.032Z,4.30
2017-07-14T16:24:31.115Z,4.60
2017-07-14T16:26:59.196Z,4.00
2017-07-14T16:29:27.280Z,4.20
2017-07-14T16:31:55.363Z,4.40
2017-07-14T16:34:23.442Z,5.20
2017-07-14T16:36:51.519Z,4.70
2017-07-14T16:39:19.597Z,4.90
2017-07-14T16:41:47.673Z,4.43
2017-07-14T16:44:15.755Z,3.80
2017-07-14T16:46:43.834Z,7.70
2017-07-14T16:49:11.916Z,5.97
2017-07-14T16:51:39.999Z,5.73
2017-07-14T16:54:08.077Z,6.03
2017-07-14T16:56:36.155Z,4.90
2017-07-14T16:59:04.242Z,5.30
2017-07-14T17:01:32.325Z,7.37
2017-07-14T17:04:00.399Z,6.03
2017-07-14T17:06:28.479Z,7.43
2017-07-14T17:08:56.570Z,7.20
2017-07-14T17:11:24.656Z,6.83
2017-07-14T17:13:52.750Z,4.10
2017-07-14T17:16:20.832Z,3.80
2017-07-14T17:18:48.908Z,5.87
2017-07-14T17:21:16.992Z,4.73
2017-07-14T17:23:45.072Z,3.70
2017-07-14T17:26:13.150Z,3.30
2017-07-14T17:28:41.233Z,4.40
2017-07-14T17:31:09.313Z,3.23
2017-07-14T17:33:37.398Z,2.40
2017-07-14T17:36:05.479Z,2.80
2017-07-14T17:38:33.590Z,3.00
2017-07-14T17:41:01.665Z,3.13
2017-07-14T17:43:29.748Z,3.37
2017-07-14T17:45:57.842Z,2.53
2017-07-14T17:48:25.923Z,2.93
2017-07-14T17:50:53.997Z,2.70
2017-07-14T17:53:22.088Z,2.90
2017-07-14T17:55:50.175Z,2.73
2017-07-14T17:58:18.249Z,2.80
2017-07-14T18:00:46.363Z,2.90
2017-07-14T18:03:14.412Z,3.33
2017-07-14T18:05:42.491Z,3.50
2017-07-14T18:08:10.572Z,3.60
2017-07-14T18:10:38.660Z,2.90
2017-07-14T18:13:06.740Z,3.47
2017-07-14T18:15:34.826Z,3.20
2017-07-14T18:18:02.900Z,3.97
2017-07-14T18:20:30.985Z,3.93
2017-07-14T18:22:59.056Z,3.67
2017-07-14T18:25:27.141Z,4.03
2017-07-14T18:27:55.216Z,4.20
2017-07-14T18:30:23.448Z,3.70
2017-07-14T18:32:51.550Z,3.53
2017-07-14T18:35:19.916Z,4.13
2017-07-14T18:37:48.279Z,3.63
2017-07-14T18:40:16.370Z,3.27
2017-07-14T18:42:44.456Z,3.00
2017-07-14T18:45:12.542Z,3.20
2017-07-14T18:47:40.623Z,3.50
2017-07-14T18:50:08.697Z,3.70
2017-07-14T18:52:36.832Z,3.67
2017-07-14T18:55:04.973Z,4.20
2017-07-14T18:57:33.113Z,3.93
2017-07-14T19:00:01.214Z,4.20
2017-07-14T19:02:29.525Z,3.33
2017-07-14T19:04:57.876Z,3.70
2017-07-14T19:07:26.040Z,3.97
2017-07-14T19:09:54.134Z,3.80
2017-07-14T19:12:22.248Z,4.17
2017-07-14T19:14:50.519Z,3.80
2017-07-14T19:17:18.660Z,4.00
2017-07-14T19:19:46.741Z,4.20
2017-07-14T19:22:14.850Z,4.00
2017-07-14T19:24:43.100Z,4.23
2017-07-14T19:27:11.265Z,4.63
2017-07-14T19:29:39.443Z,4.30
2017-07-14T19:32:07.770Z,4.70
2017-07-14T19:34:36.027Z,5.13
2017-07-14T19:37:04.177Z,4.97
2017-07-14T19:39:32.511Z,5.93
2017-07-14T19:42:00.788Z,5.37
2017-07-14T19:44:29.005Z,5.60
2017-07-14T19:46:57.340Z,5.10
2017-07-14T19:49:25.511Z,5.20
2017-07-14T19:51:54.287Z,5.80
2017-07-14T19:54:22.429Z,5.90
2017-07-14T19:56:50.881Z,6.40
2017-07-14T19:59:19.090Z,6.20
2017-07-14T20:01:47.320Z,6.43
2017-07-14T20:04:15.507Z,7.43
2017-07-14T20:06:43.757Z,7.93
2017-07-14T20:09:12.192Z,7.00
2017-07-14T20:11:40.480Z,7.50
2017-07-14T20:14:08.584Z,7.40
2017-07-14T20:16:36.821Z,6.83
2017-07-14T20:19:04.909Z,6.63
2017-07-14T20:21:33.160Z,7.27
2017-07-14T20:24:01.248Z,7.27
2017-07-14T20:26:29.331Z,6.60
2017-07-14T20:28:57.407Z,6.67
2017-07-14T20:31:25.493Z,6.40
2017-07-14T20:33:53.574Z,7.13
2017-07-14T20:36:21.651Z,7.93
2017-07-14T20:38:49.741Z,7.80
2017-07-14T20:41:17.831Z,6.00
2017-07-14T20:43:45.992Z,7.13
2017-07-14T20:46:14.093Z,5.27
2017-07-14T20:48:42.158Z,6.13
2017-07-14T20:51:10.247Z,5.43
2017-07-14T20:53:38.334Z,5.60
2017-07-14T20:56:06.419Z,5.70
2017-07-14T20:58:34.491Z,6.70
2017-07-14T21:01:02.615Z,6.37
2017-07-14T21:03:30.702Z,7.10
2017-07-14T21:05:58.884Z,6.70
2017-07-14T21:08:26.965Z,6.57
2017-07-14T21:10:55.069Z,7.17
2017-07-14T21:13:23.240Z,7.10
2017-07-14T21:15:51.323Z,6.40
2017-07-14T21:18:19.408Z,7.30
2017-07-14T21:20:47.491Z,7.13
2017-07-14T21:23:15.570Z,8.10
2017-07-14T21:25:43.654Z,7.93
2017-07-14T21:28:11.793Z,7.30
2017-07-14T21:30:39.884Z,6.30
2017-07-14T21:33:07.968Z,7.03
2017-07-14T21:35:36.052Z,12.37
2017-07-14T21:38:04.149Z,11.00
2017-07-14T21:40:32.242Z,13.90
2017-07-14T21:43:00.325Z,16.73
2017-07-14T21:45:28.422Z,13.67
2017-07-14T21:47:56.513Z,16.63
2017-07-14T21:50:24.620Z,16.80
2017-07-14T21:52:52.705Z,17.13
2017-07-14T21:55:20.830Z,17.87
2017-07-14T21:57:48.925Z,18.00
2017-07-14T22:00:17.148Z,18.97
2017-07-14T22:02:45.296Z,17.17
2017-07-14T22:05:13.462Z,17.73
2017-07-14T22:07:41.540Z,18.50
2017-07-14T22:10:09.631Z,18.00
2017-07-14T22:12:37.717Z,16.17
2017-07-14T22:15:05.811Z,17.47
2017-07-14T22:17:33.936Z,19.03
2017-07-14T22:20:02.015Z,20.40
2017-07-14T22:22:30.095Z,19.73
2017-07-14T22:24:58.192Z,17.47
2017-07-14T22:27:26.292Z,21.47
2017-07-14T22:29:54.377Z,20.57
2017-07-14T22:32:22.464Z,20.80
2017-07-14T22:34:50.552Z,19.20
2017-07-14T22:37:18.653Z,20.20
2017-07-14T22:39:46.750Z,20.90
2017-07-14T22:42:14.832Z,21.33
2017-07-14T22:44:42.924Z,18.60
2017-07-14T22:47:11.026Z,20.47
2017-07-14T22:49:39.125Z,21.60
2017-07-14T22:52:07.204Z,20.40
2017-07-14T22:54:35.292Z,23.40
2017-07-14T22:57:03.383Z,22.13
2017-07-14T22:59:31.490Z,20.53
2017-07-14T23:01:59.716Z,16.60
2017-07-14T23:04:27.813Z,18.47
2017-07-14T23:06:55.896Z,19.77
2017-07-14T23:09:24.002Z,16.87
2017-07-14T23:11:52.097Z,21.60
2017-07-14T23:14:20.190Z,20.27
2017-07-14T23:16:48.267Z,20.17
2017-07-14T23:19:16.384Z,23.33
2017-07-14T23:21:44.477Z,21.60
2017-07-14T23:24:12.563Z,15.33
2017-07-14T23:26:40.660Z,20.47
2017-07-14T23:29:08.744Z,15.40
2017-07-14T23:31:36.836Z,16.70
2017-07-14T23:34:04.919Z,14.13
2017-07-14T23:36:33.012Z,13.83
2017-07-14T23:39:01.096Z,13.53
2017-07-14T23:41:29.184Z,14.90
2017-07-14T23:43:57.272Z,14.90
2017-07-14T23:46:25.373Z,14.77
2017-07-14T23:48:53.455Z,21.00
2017-07-14T23:51:21.536Z,16.53
2017-07-14T23:53:49.630Z,16.57
2017-07-14T23:56:17.716Z,17.33
2017-07-14T23:58:45.816Z,15.50
